Time;durP1;ratioP1;P1;durP2;ratioP2;P2;SDS_P1;SDS_P2;PMS_P1;PMS_P2;Temp;Humidity;BMP_temperature;BMP_pressure;BME280_temperature;BME280_humidity;BME280_pressure;Samples;Min_cycle;Max_cycle;Signal;HPM_P1;HPM_P2
2020/12/31 00:01:18;;;;;;;49.63;25.20;;;;;;;;;;5014695;28;20040;-58
2020/12/31 00:03:44;;;;;;;50.38;24.42;;;;;;;;;;4999299;28;20041;-58
2020/12/31 00:06:10;;;;;;;50.63;25.90;;;;;;;;;;5010777;28;20046;-58
2020/12/31 00:08:36;;;;;;;55.85;26.85;;;;;;;;;;5022255;28;20086;-58
2020/12/31 00:11:02;;;;;;;55.25;27.02;;;;;;;;;;5034015;28;20082;-58
2020/12/31 00:13:28;;;;;;;57.28;26.15;;;;;;;;;;5027452;28;20040;-58
2020/12/31 00:15:55;;;;;;;55.15;28.00;;;;;;;;;;5031233;28;20045;-58
2020/12/31 00:18:21;;;;;;;55.20;29.23;;;;;;;;;;5029980;28;20037;-58
2020/12/31 00:20:47;;;;;;;65.15;29.15;;;;;;;;;;5028576;28;20152;-58
2020/12/31 00:23:13;;;;;;;60.60;29.55;;;;;;;;;;5030822;28;20036;-58
2020/12/31 00:25:46;;;;;;;63.78;29.23;;;;;;;;;;5034376;28;20075;-58
2020/12/31 00:28:12;;;;;;;58.78;29.63;;;;;;;;;;5036175;28;20033;-57
2020/12/31 00:30:38;;;;;;;63.78;30.88;;;;;;;;;;5029422;28;20496;-58
2020/12/31 00:33:04;;;;;;;67.70;31.30;;;;;;;;;;5033686;28;20044;-58
2020/12/31 00:35:30;;;;;;;67.60;29.63;;;;;;;;;;5032188;28;20076;-58
2020/12/31 00:37:56;;;;;;;66.35;31.23;;;;;;;;;;5030074;28;20033;-58
2020/12/31 00:40:22;;;;;;;67.72;30.77;;;;;;;;;;5025822;28;20044;-57
2020/12/31 00:42:48;;;;;;;65.88;30.77;;;;;;;;;;5033094;28;20406;-57
2020/12/31 00:45:14;;;;;;;70.10;31.67;;;;;;;;;;5027871;28;20029;-57
2020/12/31 00:47:40;;;;;;;71.70;32.20;;;;;;;;;;5032172;28;20449;-58
2020/12/31 00:50:06;;;;;;;69.13;31.50;;;;;;;;;;5034473;28;20108;-58
2020/12/31 00:52:32;;;;;;;68.68;32.25;;;;;;;;;;5034096;28;20048;-58
2020/12/31 00:54:58;;;;;;;67.88;31.30;;;;;;;;;;5025641;28;21988;-58
2020/12/31 00:57:24;;;;;;;73.60;34.05;;;;;;;;;;5032029;28;20551;-58
2020/12/31 00:59:50;;;;;;;73.38;32.60;;;;;;;;;;5033278;28;20055;-58
2020/12/31 01:02:16;;;;;;;82.22;34.38;;;;;;;;;;5030548;28;20037;-58
2020/12/31 01:04:42;;;;;;;76.13;32.55;;;;;;;;;;5030349;28;20789;-58
2020/12/31 01:07:08;;;;;;;81.63;34.80;;;;;;;;;;5031343;28;20037;-58
2020/12/31 01:09:34;;;;;;;78.93;33.97;;;;;;;;;;5036296;28;20079;-58
2020/12/31 01:12:00;;;;;;;81.47;33.95;;;;;;;;;;5033275;28;20596;-58
2020/12/31 01:14:26;;;;;;;78.75;32.78;;;;;;;;;;5031769;28;20037;-58
2020/12/31 01:16:52;;;;;;;82.97;34.40;;;;;;;;;;5037172;28;20110;-57
2020/12/31 01:19:18;;;;;;;76.18;33.35;;;;;;;;;;5043047;28;20052;-58
2020/12/31 01:21:47;;;;;;;83.75;34.67;;;;;;;;;;5034959;28;20579;-57
2020/12/31 01:24:14;;;;;;;79.13;33.05;;;;;;;;;;5034476;28;20355;-58
2020/12/31 01:26:40;;;;;;;86.03;33.35;;;;;;;;;;5033896;28;20040;-57
2020/12/31 01:29:06;;;;;;;76.25;32.67;;;;;;;;;;5032470;28;20041;-58
2020/12/31 01:31:32;;;;;;;78.78;33.38;;;;;;;;;;5031156;28;20040;-58
2020/12/31 01:33:58;;;;;;;76.05;32.95;;;;;;;;;;5033784;28;20060;-58
2020/12/31 01:36:25;;;;;;;75.32;32.22;;;;;;;;;;5033089;28;20042;-58
2020/12/31 01:38:51;;;;;;;69.72;31.50;;;;;;;;;;5035692;28;20041;-58
2020/12/31 01:41:22;;;;;;;75.13;32.45;;;;;;;;;;5035263;28;20141;-58
2020/12/31 01:44:01;;;;;;;74.47;30.73;;;;;;;;;;5037449;28;20762;-58
2020/12/31 01:46:28;;;;;;;74.97;31.65;;;;;;;;;;5036719;28;20041;-59
2020/12/31 01:48:54;;;;;;;74.47;30.65;;;;;;;;;;5037340;28;20037;-59
2020/12/31 01:51:20;;;;;;;72.75;31.95;;;;;;;;;;5038868;28;20056;-59
2020/12/31 01:53:46;;;;;;;71.55;31.70;;;;;;;;;;5038568;28;20048;-58
2020/12/31 01:56:12;;;;;;;67.35;31.15;;;;;;;;;;5028434;28;22245;-59
2020/12/31 01:58:38;;;;;;;66.10;30.40;;;;;;;;;;5026543;28;20033;-59
2020/12/31 02:01:04;;;;;;;68.60;30.50;;;;;;;;;;5033595;28;20053;-59
2020/12/31 02:03:30;;;;;;;70.55;29.90;;;;;;;;;;5037871;28;20084;-58
2020/12/31 02:05:56;;;;;;;76.60;29.92;;;;;;;;;;5013118;28;20564;-59
2020/12/31 02:08:22;;;;;;;74.20;28.98;;;;;;;;;;5027800;28;20087;-59
2020/12/31 02:10:49;;;;;;;64.10;28.92;;;;;;;;;;5033995;28;20041;-57
2020/12/31 02:13:15;;;;;;;70.90;28.65;;;;;;;;;;5031247;28;20037;-59
2020/12/31 02:15:41;;;;;;;66.20;29.00;;;;;;;;;;5036595;28;20041;-59
2020/12/31 02:18:07;;;;;;;65.50;27.60;;;;;;;;;;5039342;28;20037;-58
2020/12/31 02:20:33;;;;;;;71.20;30.00;;;;;;;;;;5033607;28;22330;-58
2020/12/31 02:22:59;;;;;;;69.55;29.67;;;;;;;;;;5037262;28;20025;-59
2020/12/31 02:25:25;;;;;;;71.38;30.25;;;;;;;;;;5030699;28;20086;-59
2020/12/31 02:27:51;;;;;;;66.38;29.58;;;;;;;;;;5035257;28;20052;-59
2020/12/31 02:30:17;;;;;;;70.78;29.88;;;;;;;;;;5037138;28;20516;-58
2020/12/31 02:32:43;;;;;;;70.25;28.65;;;;;;;;;;5038795;28;20032;-58
2020/12/31 02:35:09;;;;;;;66.55;28.42;;;;;;;;;;5035124;28;20109;-59
2020/12/31 02:37:35;;;;;;;64.45;29.00;;;;;;;;;;5032024;28;20540;-59
2020/12/31 02:40:01;;;;;;;63.05;27.65;;;;;;;;;;5040091;28;20070;-59
2020/12/31 02:42:27;;;;;;;67.43;28.10;;;;;;;;;;5037947;28;20091;-59
2020/12/31 02:44:53;;;;;;;63.67;28.73;;;;;;;;;;5030844;28;20040;-60
2020/12/31 02:47:19;;;;;;;65.28;27.23;;;;;;;;;;5036664;28;20039;-58
2020/12/31 02:49:45;;;;;;;63.80;27.83;;;;;;;;;;5032388;28;20045;-58
2020/12/31 02:52:11;;;;;;;59.95;27.13;;;;;;;;;;5037142;28;20045;-58
2020/12/31 02:54:37;;;;;;;59.53;27.15;;;;;;;;;;5037697;28;20052;-57
2020/12/31 02:57:03;;;;;;;67.20;28.40;;;;;;;;;;5040979;28;20036;-58
2020/12/31 02:59:28;;;;;;;63.45;28.98;;;;;;;;;;5031040;28;20049;-58
2020/12/31 03:01:54;;;;;;;62.67;27.67;;;;;;;;;;5019135;28;20052;-58
2020/12/31 03:04:20;;;;;;;66.72;27.83;;;;;;;;;;5031592;28;20564;-58
2020/12/31 03:06:46;;;;;;;60.90;27.58;;;;;;;;;;5036375;28;20143;-58
2020/12/31 03:09:12;;;;;;;63.42;27.10;;;;;;;;;;5028861;28;20401;-58
2020/12/31 03:11:41;;;;;;;71.03;26.70;;;;;;;;;;5038213;28;20049;-59
2020/12/31 03:14:07;;;;;;;59.88;27.42;;;;;;;;;;5031805;28;20555;-59
2020/12/31 03:16:33;;;;;;;61.08;27.60;;;;;;;;;;5024163;28;20033;-58
2020/12/31 03:18:59;;;;;;;62.88;28.70;;;;;;;;;;5035021;28;20405;-58
2020/12/31 03:21:25;;;;;;;61.95;28.15;;;;;;;;;;5032677;28;20137;-58
2020/12/31 03:23:51;;;;;;;58.00;27.83;;;;;;;;;;5039155;28;20417;-59
2020/12/31 03:26:17;;;;;;;51.75;26.05;;;;;;;;;;5031994;28;20042;-59
2020/12/31 03:28:43;;;;;;;64.13;29.90;;;;;;;;;;5035157;28;20085;-58
2020/12/31 03:31:09;;;;;;;59.40;28.35;;;;;;;;;;5027635;28;20044;-59
2020/12/31 03:33:35;;;;;;;63.15;27.48;;;;;;;;;;5029964;28;20070;-59
2020/12/31 03:36:01;;;;;;;57.85;26.45;;;;;;;;;;5025540;28;20044;-59
2020/12/31 03:38:27;;;;;;;60.42;26.17;;;;;;;;;;5035255;28;20138;-59
2020/12/31 03:40:53;;;;;;;53.80;25.75;;;;;;;;;;5035395;28;20040;-59
2020/12/31 03:43:19;;;;;;;59.45;27.65;;;;;;;;;;5030169;28;20572;-59
2020/12/31 03:45:45;;;;;;;52.95;25.83;;;;;;;;;;5029136;28;20095;-59
2020/12/31 03:48:11;;;;;;;56.40;27.63;;;;;;;;;;5035109;28;20049;-59
2020/12/31 03:50:38;;;;;;;58.42;27.25;;;;;;;;;;5034786;28;20037;-59
2020/12/31 03:53:04;;;;;;;55.63;24.42;;;;;;;;;;5035898;28;20043;-59
2020/12/31 03:55:30;;;;;;;58.00;26.23;;;;;;;;;;5035999;28;20039;-59
2020/12/31 03:57:56;;;;;;;53.30;25.08;;;;;;;;;;5037631;28;20120;-59
2020/12/31 04:00:22;;;;;;;54.17;24.42;;;;;;;;;;5038664;28;20577;-59
2020/12/31 04:02:48;;;;;;;53.17;25.85;;;;;;;;;;5031658;28;20037;-59
2020/12/31 04:05:14;;;;;;;49.25;24.77;;;;;;;;;;5024665;28;20128;-59
2020/12/31 04:07:40;;;;;;;49.95;24.67;;;;;;;;;;5031088;28;20166;-59
2020/12/31 04:10:06;;;;;;;56.80;25.45;;;;;;;;;;5039537;28;20989;-59
2020/12/31 04:12:32;;;;;;;52.65;25.70;;;;;;;;;;5031489;28;20037;-59
2020/12/31 04:14:58;;;;;;;50.75;25.48;;;;;;;;;;5027730;28;20048;-59
2020/12/31 04:17:25;;;;;;;55.20;24.10;;;;;;;;;;5036351;28;20175;-59
2020/12/31 04:19:50;;;;;;;42.40;22.30;;;;;;;;;;5026871;28;20040;-59
2020/12/31 04:22:17;;;;;;;47.60;24.80;;;;;;;;;;5033127;28;20041;-58
2020/12/31 04:24:43;;;;;;;51.33;24.63;;;;;;;;;;5037291;28;20033;-59
2020/12/31 04:27:09;;;;;;;46.90;22.55;;;;;;;;;;5040752;28;20040;-59
2020/12/31 04:29:35;;;;;;;46.83;21.98;;;;;;;;;;5038020;28;20136;-59
2020/12/31 04:32:01;;;;;;;47.28;24.20;;;;;;;;;;5022653;28;20393;-59
2020/12/31 04:34:27;;;;;;;49.45;24.73;;;;;;;;;;5024798;28;20052;-59
2020/12/31 04:36:53;;;;;;;41.50;22.10;;;;;;;;;;5023274;28;20044;-59
2020/12/31 04:39:19;;;;;;;46.15;22.88;;;;;;;;;;5030134;28;20145;-59
2020/12/31 04:41:45;;;;;;;41.35;22.45;;;;;;;;;;5038050;28;20043;-59
2020/12/31 04:44:13;;;;;;;46.08;23.75;;;;;;;;;;5028750;28;20047;-59
2020/12/31 04:46:40;;;;;;;49.08;23.65;;;;;;;;;;5036878;28;20095;-58
2020/12/31 04:49:09;;;;;;;54.58;23.48;;;;;;;;;;5036760;28;20580;-59
2020/12/31 04:51:36;;;;;;;45.45;22.77;;;;;;;;;;5035021;28;20048;-58
2020/12/31 04:54:05;;;;;;;45.17;22.77;;;;;;;;;;5034416;28;20037;-59
2020/12/31 04:56:34;;;;;;;47.25;22.42;;;;;;;;;;5036074;28;20094;-59
2020/12/31 04:59:00;;;;;;;48.67;23.77;;;;;;;;;;5013997;28;20052;-58
2020/12/31 05:01:26;;;;;;;43.25;22.20;;;;;;;;;;5026973;28;20686;-59
2020/12/31 05:03:52;;;;;;;46.67;22.77;;;;;;;;;;5031779;28;20033;-58
2020/12/31 05:06:18;;;;;;;40.35;21.65;;;;;;;;;;5032313;28;20033;-59
2020/12/31 05:08:46;;;;;;;43.85;22.42;;;;;;;;;;5038926;28;20041;-59
2020/12/31 05:11:12;;;;;;;45.08;22.35;;;;;;;;;;5038232;28;20447;-59
2020/12/31 05:13:45;;;;;;;43.40;22.60;;;;;;;;;;5030432;28;20067;-58
2020/12/31 05:16:13;;;;;;;44.83;23.27;;;;;;;;;;5036830;28;20045;-58
2020/12/31 05:18:39;;;;;;;44.65;22.52;;;;;;;;;;5032278;28;20070;-58
2020/12/31 05:21:15;;;;;;;45.92;23.35;;;;;;;;;;5024247;28;20067;-59
2020/12/31 05:23:44;;;;;;;44.33;21.88;;;;;;;;;;5034244;28;20044;-59
2020/12/31 05:26:10;;;;;;;45.13;22.27;;;;;;;;;;5033550;28;20098;-59
2020/12/31 05:28:40;;;;;;;43.30;22.17;;;;;;;;;;5033310;28;20041;-59
2020/12/31 05:31:13;;;;;;;45.08;22.60;;;;;;;;;;5028307;28;20064;-59
2020/12/31 05:33:42;;;;;;;49.22;23.05;;;;;;;;;;5033499;28;20138;-58
2020/12/31 05:36:16;;;;;;;41.35;22.02;;;;;;;;;;5034743;28;20056;-59
2020/12/31 05:38:42;;;;;;;41.83;21.17;;;;;;;;;;5031684;28;20058;-58
2020/12/31 05:41:09;;;;;;;45.78;22.83;;;;;;;;;;5032997;28;20043;-58
2020/12/31 05:43:35;;;;;;;42.63;22.02;;;;;;;;;;5035285;28;20133;-58
2020/12/31 05:46:18;;;;;;;46.35;21.00;;;;;;;;;;5030603;28;20040;-58
2020/12/31 05:48:44;;;;;;;41.38;20.77;;;;;;;;;;5039606;28;20029;-58
2020/12/31 05:51:23;;;;;;;44.90;21.75;;;;;;;;;;5035317;28;20041;-58
2020/12/31 05:53:49;;;;;;;39.72;20.83;;;;;;;;;;5042006;28;20091;-58
2020/12/31 05:56:16;;;;;;;43.13;20.30;;;;;;;;;;5038472;28;20040;-58
2020/12/31 05:58:46;;;;;;;44.85;21.75;;;;;;;;;;5038721;28;20059;-58
2020/12/31 06:01:14;;;;;;;38.65;19.85;;;;;;;;;;5031548;28;20053;-58
2020/12/31 06:03:46;;;;;;;37.92;20.70;;;;;;;;;;5035564;28;20811;-59
2020/12/31 06:06:16;;;;;;;44.00;22.02;;;;;;;;;;5040299;28;20049;-59
2020/12/31 06:08:47;;;;;;;42.20;22.08;;;;;;;;;;5033522;28;20090;-58
2020/12/31 06:11:15;;;;;;;44.15;22.27;;;;;;;;;;5033419;28;20064;-58
2020/12/31 06:13:48;;;;;;;43.65;21.65;;;;;;;;;;5031627;28;20041;-58
2020/12/31 06:16:16;;;;;;;42.10;20.70;;;;;;;;;;5030525;28;20180;-58
2020/12/31 06:18:45;;;;;;;39.60;21.33;;;;;;;;;;5037052;28;20044;-57
2020/12/31 06:21:14;;;;;;;39.92;18.88;;;;;;;;;;5011122;28;20146;-58
2020/12/31 06:23:41;;;;;;;39.40;20.65;;;;;;;;;;5035222;28;20821;-59
2020/12/31 06:26:12;;;;;;;39.58;20.17;;;;;;;;;;5024022;28;20052;-58
2020/12/31 06:28:41;;;;;;;44.90;20.98;;;;;;;;;;5021902;28;20643;-59
2020/12/31 06:31:07;;;;;;;39.13;20.77;;;;;;;;;;5031721;28;20131;-59
2020/12/31 06:33:53;;;;;;;38.17;20.02;;;;;;;;;;5039336;28;20052;-59
2020/12/31 06:36:19;;;;;;;39.45;19.77;;;;;;;;;;5003429;28;20045;-59
2020/12/31 06:38:47;;;;;;;38.95;20.60;;;;;;;;;;5017645;28;20059;-59
2020/12/31 06:41:32;;;;;;;36.97;19.08;;;;;;;;;;5036983;28;21119;-58
2020/12/31 06:44:07;;;;;;;40.22;19.55;;;;;;;;;;5038551;28;20808;-58
2020/12/31 06:46:47;;;;;;;38.17;20.10;;;;;;;;;;5033368;28;20079;-58
2020/12/31 06:49:13;;;;;;;40.53;19.98;;;;;;;;;;5028212;28;20040;-58
2020/12/31 06:51:39;;;;;;;36.75;18.63;;;;;;;;;;5013605;28;20164;-58
2020/12/31 06:54:05;;;;;;;44.55;20.30;;;;;;;;;;5029778;28;20090;-58
2020/12/31 06:56:51;;;;;;;37.85;19.10;;;;;;;;;;5024443;28;20055;-59
2020/12/31 06:59:26;;;;;;;36.65;18.80;;;;;;;;;;5026741;28;20524;-58
2020/12/31 07:01:52;;;;;;;39.67;20.30;;;;;;;;;;5033286;28;20064;-58
2020/12/31 07:04:37;;;;;;;34.08;19.02;;;;;;;;;;5027345;28;20084;-58
2020/12/31 07:07:24;;;;;;;35.95;19.15;;;;;;;;;;5027879;28;20064;-59
2020/12/31 07:09:56;;;;;;;38.67;20.48;;;;;;;;;;5021064;28;20037;-59
2020/12/31 07:12:31;;;;;;;35.95;19.10;;;;;;;;;;5028090;28;20045;-59
2020/12/31 07:14:57;;;;;;;37.75;18.63;;;;;;;;;;5031129;28;20032;-59
2020/12/31 07:17:23;;;;;;;38.10;19.75;;;;;;;;;;5033208;28;20099;-59
2020/12/31 07:19:49;;;;;;;37.35;20.15;;;;;;;;;;5030523;28;20136;-59
2020/12/31 07:22:15;;;;;;;38.05;19.85;;;;;;;;;;5033097;28;20711;-59
2020/12/31 07:24:54;;;;;;;39.58;19.42;;;;;;;;;;5022563;28;20314;-59
2020/12/31 07:27:27;;;;;;;37.40;18.85;;;;;;;;;;5034704;28;20037;-59
2020/12/31 07:30:19;;;;;;;37.05;19.02;;;;;;;;;;5032403;28;20536;-58
2020/12/31 07:32:57;;;;;;;32.72;17.65;;;;;;;;;;5022948;28;20047;-58
2020/12/31 07:35:26;;;;;;;32.42;18.08;;;;;;;;;;5033163;28;20119;-59
2020/12/31 07:37:52;;;;;;;33.67;18.30;;;;;;;;;;5029687;28;20098;-58
2020/12/31 07:40:35;;;;;;;34.47;18.05;;;;;;;;;;5028387;28;20048;-58
2020/12/31 07:43:01;;;;;;;36.40;18.90;;;;;;;;;;5028452;28;20064;-58
2020/12/31 07:45:28;;;;;;;33.28;18.23;;;;;;;;;;5031155;28;20033;-58
2020/12/31 07:47:55;;;;;;;34.92;18.27;;;;;;;;;;5033780;28;20037;-58
2020/12/31 07:50:21;;;;;;;33.72;18.27;;;;;;;;;;5036891;28;20102;-58
2020/12/31 07:52:48;;;;;;;38.10;18.48;;;;;;;;;;5031733;28;20045;-58
2020/12/31 07:55:14;;;;;;;34.75;17.50;;;;;;;;;;5035949;28;20489;-59
2020/12/31 07:57:40;;;;;;;29.95;17.40;;;;;;;;;;5030797;28;20118;-59
2020/12/31 08:00:07;;;;;;;33.95;17.38;;;;;;;;;;5023905;28;20048;-59
2020/12/31 08:02:33;;;;;;;31.35;17.35;;;;;;;;;;5013281;28;20094;-59
2020/12/31 08:04:59;;;;;;;35.35;16.88;;;;;;;;;;5032414;28;20045;-58
2020/12/31 08:07:25;;;;;;;35.42;17.60;;;;;;;;;;5032171;28;20037;-59
2020/12/31 08:09:52;;;;;;;32.22;17.38;;;;;;;;;;5026496;28;20386;-59
2020/12/31 08:12:18;;;;;;;34.42;17.10;;;;;;;;;;5024132;28;20087;-59
2020/12/31 08:14:45;;;;;;;30.20;16.42;;;;;;;;;;5016144;28;20029;-59
2020/12/31 08:17:11;;;;;;;32.97;16.58;;;;;;;;;;5017581;28;20048;-59
2020/12/31 08:19:38;;;;;;;31.52;16.23;;;;;;;;;;5026631;28;20071;-58
2020/12/31 08:22:12;;;;;;;33.58;16.63;;;;;;;;;;5021792;28;20052;-59
2020/12/31 08:24:43;;;;;;;32.53;15.93;;;;;;;;;;5024546;28;20052;-59
2020/12/31 08:27:11;;;;;;;29.52;15.52;;;;;;;;;;5033269;28;20041;-58
2020/12/31 08:29:38;;;;;;;28.02;15.68;;;;;;;;;;5028231;28;20083;-59
2020/12/31 08:32:08;;;;;;;26.10;14.20;;;;;;;;;;5024144;28;20056;-59
2020/12/31 08:34:36;;;;;;;25.77;13.63;;;;;;;;;;5032284;28;20049;-59
2020/12/31 08:37:02;;;;;;;28.67;14.48;;;;;;;;;;5036417;28;20044;-59
2020/12/31 08:39:29;;;;;;;25.17;14.27;;;;;;;;;;5033076;28;20124;-58
2020/12/31 08:42:00;;;;;;;23.65;14.10;;;;;;;;;;5027694;28;20065;-59
2020/12/31 08:44:26;;;;;;;25.35;13.25;;;;;;;;;;5021868;28;20536;-59
2020/12/31 08:46:52;;;;;;;25.73;13.45;;;;;;;;;;5022993;28;20041;-58
2020/12/31 08:49:28;;;;;;;22.63;12.40;;;;;;;;;;5031306;28;20037;-59
2020/12/31 08:51:54;;;;;;;22.38;13.13;;;;;;;;;;5030976;28;20131;-59
2020/12/31 08:54:20;;;;;;;21.55;11.75;;;;;;;;;;5028520;28;20425;-59
2020/12/31 08:56:47;;;;;;;24.33;13.38;;;;;;;;;;5030734;28;20610;-58
2020/12/31 08:59:17;;;;;;;20.25;11.82;;;;;;;;;;5025110;28;20037;-59
2020/12/31 09:01:43;;;;;;;21.02;12.40;;;;;;;;;;5023341;28;20029;-59
2020/12/31 09:04:14;;;;;;;23.50;11.85;;;;;;;;;;5027632;28;25821;-59
2020/12/31 09:06:43;;;;;;;18.88;10.57;;;;;;;;;;5020746;28;20045;-59
2020/12/31 09:09:19;;;;;;;22.02;11.15;;;;;;;;;;5013025;28;22490;-58
2020/12/31 09:12:17;;;;;;;18.67;9.93;;;;;;;;;;5023493;28;20520;-59
2020/12/31 09:14:57;;;;;;;20.08;10.20;;;;;;;;;;4969565;28;20041;-59
2020/12/31 09:17:26;;;;;;;16.83;10.73;;;;;;;;;;5026335;28;20149;-60
2020/12/31 09:19:55;;;;;;;16.95;10.20;;;;;;;;;;5028403;28;20044;-59
2020/12/31 09:22:22;;;;;;;17.05;9.90;;;;;;;;;;5023342;28;20038;-59
2020/12/31 09:24:48;;;;;;;15.55;9.65;;;;;;;;;;5030580;28;20084;-59
2020/12/31 09:27:24;;;;;;;18.60;9.82;;;;;;;;;;5028917;28;20528;-59
2020/12/31 09:29:57;;;;;;;18.73;10.18;;;;;;;;;;5028280;28;20851;-59
2020/12/31 09:32:23;;;;;;;18.83;10.15;;;;;;;;;;5030017;28;20053;-59
2020/12/31 09:34:49;;;;;;;19.73;10.32;;;;;;;;;;5024443;28;20041;-59
2020/12/31 09:37:16;;;;;;;17.60;9.80;;;;;;;;;;5028585;28;20092;-59
2020/12/31 09:39:42;;;;;;;19.92;11.00;;;;;;;;;;5029406;28;20039;-63
2020/12/31 09:42:08;;;;;;;19.58;10.93;;;;;;;;;;5025273;28;20049;-59
2020/12/31 09:44:34;;;;;;;19.25;10.80;;;;;;;;;;5027976;28;20087;-59
2020/12/31 09:47:00;;;;;;;21.67;11.27;;;;;;;;;;5023491;28;20489;-59
2020/12/31 09:49:26;;;;;;;21.95;11.30;;;;;;;;;;5016532;28;20041;-59
2020/12/31 09:51:52;;;;;;;23.85;12.23;;;;;;;;;;5020934;28;21242;-63
2020/12/31 09:54:19;;;;;;;22.55;11.48;;;;;;;;;;5030594;28;20041;-63
2020/12/31 09:56:45;;;;;;;21.63;11.65;;;;;;;;;;5028606;28;20044;-60
2020/12/31 09:59:11;;;;;;;22.67;12.05;;;;;;;;;;5022927;28;20044;-59
2020/12/31 10:01:37;;;;;;;22.90;11.57;;;;;;;;;;5030353;28;20037;-59
2020/12/31 10:04:03;;;;;;;24.63;12.45;;;;;;;;;;5027932;28;20044;-59
2020/12/31 10:06:29;;;;;;;26.30;12.50;;;;;;;;;;5024234;28;20103;-59
2020/12/31 10:08:55;;;;;;;22.83;11.57;;;;;;;;;;5033853;28;20136;-59
2020/12/31 10:11:21;;;;;;;20.77;12.07;;;;;;;;;;5036900;28;20033;-60
2020/12/31 10:13:47;;;;;;;22.48;11.38;;;;;;;;;;5033856;28;20048;-59
2020/12/31 10:16:13;;;;;;;23.15;11.85;;;;;;;;;;5024703;28;20029;-59
2020/12/31 10:18:39;;;;;;;18.38;10.18;;;;;;;;;;5038563;28;20036;-59
2020/12/31 10:21:06;;;;;;;25.98;13.05;;;;;;;;;;5032359;28;20484;-59
2020/12/31 10:23:32;;;;;;;23.63;12.75;;;;;;;;;;5032977;28;20072;-59
2020/12/31 10:25:58;;;;;;;21.83;12.27;;;;;;;;;;5030514;28;20057;-62
2020/12/31 10:28:24;;;;;;;22.50;12.35;;;;;;;;;;5034617;28;21172;-62
2020/12/31 10:30:50;;;;;;;23.85;13.65;;;;;;;;;;5035041;28;20045;-63
2020/12/31 10:33:16;;;;;;;26.30;12.85;;;;;;;;;;5032086;28;20037;-59
2020/12/31 10:35:43;;;;;;;25.23;12.77;;;;;;;;;;5034947;28;20769;-59
2020/12/31 10:38:09;;;;;;;22.90;13.48;;;;;;;;;;5038067;28;20037;-59
2020/12/31 10:40:35;;;;;;;22.65;12.10;;;;;;;;;;5038262;28;20071;-59
2020/12/31 10:43:01;;;;;;;23.58;14.65;;;;;;;;;;5025833;28;20040;-59
2020/12/31 10:45:27;;;;;;;24.92;12.32;;;;;;;;;;5026840;28;20036;-58
2020/12/31 10:47:53;;;;;;;22.77;12.82;;;;;;;;;;5035114;28;20041;-59
2020/12/31 10:50:19;;;;;;;26.58;13.68;;;;;;;;;;5039165;28;20021;-59
2020/12/31 10:52:45;;;;;;;21.83;12.45;;;;;;;;;;5017969;28;20532;-58
2020/12/31 10:55:11;;;;;;;24.45;12.77;;;;;;;;;;5036185;28;20130;-59
2020/12/31 10:57:37;;;;;;;22.48;12.30;;;;;;;;;;5037871;28;20044;-59
2020/12/31 11:00:03;;;;;;;21.88;13.02;;;;;;;;;;5036622;28;21076;-59
2020/12/31 11:02:29;;;;;;;22.15;12.00;;;;;;;;;;5035625;28;20029;-59
2020/12/31 11:04:55;;;;;;;25.73;11.57;;;;;;;;;;5029090;28;20040;-58
2020/12/31 11:07:21;;;;;;;22.55;11.00;;;;;;;;;;5036737;28;20044;-58
2020/12/31 11:09:47;;;;;;;19.20;11.13;;;;;;;;;;5034368;28;20044;-59
2020/12/31 11:12:13;;;;;;;20.60;12.20;;;;;;;;;;5032652;28;20044;-59
2020/12/31 11:14:39;;;;;;;21.05;12.02;;;;;;;;;;5030955;28;20044;-58
2020/12/31 11:17:05;;;;;;;21.88;12.15;;;;;;;;;;5020267;28;20140;-62
2020/12/31 11:19:31;;;;;;;24.55;12.75;;;;;;;;;;5018121;28;20041;-62
2020/12/31 11:21:57;;;;;;;22.70;12.38;;;;;;;;;;5032916;28;20069;-58
2020/12/31 11:24:23;;;;;;;20.17;11.32;;;;;;;;;;5027716;28;20044;-58
2020/12/31 11:26:50;;;;;;;23.13;11.85;;;;;;;;;;5028837;28;20094;-58
2020/12/31 11:29:16;;;;;;;24.30;11.85;;;;;;;;;;5021485;28;20555;-61
2020/12/31 11:31:42;;;;;;;22.65;12.80;;;;;;;;;;5035687;28;20053;-58
2020/12/31 11:34:08;;;;;;;20.45;11.98;;;;;;;;;;5034635;28;20056;-58
2020/12/31 11:36:34;;;;;;;23.48;11.57;;;;;;;;;;5033408;28;20026;-59
2020/12/31 11:39:00;;;;;;;25.58;12.15;;;;;;;;;;5034795;28;20040;-59
2020/12/31 11:41:28;;;;;;;25.02;11.35;;;;;;;;;;5035194;28;20381;-59
2020/12/31 11:43:54;;;;;;;22.42;12.23;;;;;;;;;;5038230;28;20199;-58
2020/12/31 11:46:20;;;;;;;22.00;12.60;;;;;;;;;;5035002;28;20037;-58
2020/12/31 11:48:46;;;;;;;22.58;11.70;;;;;;;;;;5040874;28;20044;-58
2020/12/31 11:51:12;;;;;;;23.50;11.73;;;;;;;;;;5040913;28;20404;-58
2020/12/31 11:53:41;;;;;;;19.95;11.00;;;;;;;;;;5041360;28;20551;-59
2020/12/31 11:56:07;;;;;;;21.65;10.80;;;;;;;;;;5019044;28;20044;-59
2020/12/31 11:58:33;;;;;;;18.92;10.85;;;;;;;;;;5035589;28;20029;-61
2020/12/31 12:01:00;;;;;;;17.40;10.07;;;;;;;;;;5039841;28;20041;-58
2020/12/31 12:03:26;;;;;;;21.58;10.68;;;;;;;;;;5039487;28;20036;-58
2020/12/31 12:05:52;;;;;;;23.05;9.82;;;;;;;;;;5037350;28;20043;-57
2020/12/31 12:08:19;;;;;;;20.38;10.40;;;;;;;;;;5037040;28;20041;-58
2020/12/31 12:10:47;;;;;;;18.48;10.68;;;;;;;;;;5041232;28;20033;-58
2020/12/31 12:13:13;;;;;;;16.52;9.73;;;;;;;;;;5038523;28;20541;-58
2020/12/31 12:15:41;;;;;;;20.17;10.30;;;;;;;;;;5035661;28;20028;-58
2020/12/31 12:18:07;;;;;;;15.43;8.90;;;;;;;;;;5039896;28;20029;-57
2020/12/31 12:20:33;;;;;;;15.57;8.63;;;;;;;;;;5039012;28;20045;-58
2020/12/31 12:22:59;;;;;;;17.88;9.10;;;;;;;;;;5036810;28;20541;-58
2020/12/31 12:25:25;;;;;;;18.90;8.38;;;;;;;;;;5032030;28;20310;-58
2020/12/31 12:27:51;;;;;;;17.30;8.05;;;;;;;;;;5026451;28;20025;-58
2020/12/31 12:30:17;;;;;;;17.60;8.25;;;;;;;;;;5024910;28;20040;-58
2020/12/31 12:32:45;;;;;;;17.55;9.18;;;;;;;;;;5023980;28;20108;-58
2020/12/31 12:35:11;;;;;;;16.77;8.13;;;;;;;;;;5022651;28;20036;-57
2020/12/31 12:37:37;;;;;;;15.00;8.60;;;;;;;;;;5025643;28;20101;-58
2020/12/31 12:40:05;;;;;;;16.88;9.20;;;;;;;;;;5022251;28;20121;-58
2020/12/31 12:42:34;;;;;;;17.80;8.77;;;;;;;;;;5029031;28;20174;-58
2020/12/31 12:45:00;;;;;;;17.98;8.45;;;;;;;;;;5034845;28;20110;-58
2020/12/31 12:47:26;;;;;;;16.20;9.55;;;;;;;;;;5027547;28;20080;-58
2020/12/31 12:49:53;;;;;;;16.58;9.10;;;;;;;;;;5029026;28;20144;-58
2020/12/31 12:52:19;;;;;;;17.23;9.45;;;;;;;;;;5029154;28;20037;-58
2020/12/31 12:54:45;;;;;;;17.65;9.77;;;;;;;;;;5019135;28;20083;-58
2020/12/31 12:57:10;;;;;;;19.25;9.32;;;;;;;;;;5008768;28;20461;-59
2020/12/31 12:59:36;;;;;;;19.33;9.65;;;;;;;;;;5015992;28;20045;-58
2020/12/31 13:02:02;;;;;;;18.48;9.85;;;;;;;;;;5015062;28;20033;-58
2020/12/31 13:04:28;;;;;;;17.58;10.00;;;;;;;;;;5006929;28;20041;-58
2020/12/31 13:06:54;;;;;;;18.35;10.05;;;;;;;;;;5024524;28;20037;-58
2020/12/31 13:09:20;;;;;;;16.05;9.20;;;;;;;;;;5034221;28;20374;-58
2020/12/31 13:11:46;;;;;;;25.98;13.95;;;;;;;;;;5028882;28;20048;-58
2020/12/31 13:14:12;;;;;;;17.83;9.38;;;;;;;;;;5030202;28;20037;-58
2020/12/31 13:16:39;;;;;;;21.05;10.50;;;;;;;;;;5030518;28;20048;-58
2020/12/31 13:19:05;;;;;;;20.23;11.35;;;;;;;;;;5031987;28;20124;-58
2020/12/31 13:21:31;;;;;;;20.20;10.18;;;;;;;;;;5034227;28;20040;-58
2020/12/31 13:23:57;;;;;;;20.05;10.43;;;;;;;;;;5035855;28;20037;-58
2020/12/31 13:26:23;;;;;;;20.83;10.43;;;;;;;;;;5038406;28;20079;-58
2020/12/31 13:28:51;;;;;;;22.02;10.55;;;;;;;;;;5020068;28;20111;-59
2020/12/31 13:31:17;;;;;;;17.33;9.57;;;;;;;;;;5032751;28;20041;-58
2020/12/31 13:33:43;;;;;;;19.15;9.85;;;;;;;;;;5034282;28;20049;-58
2020/12/31 13:36:11;;;;;;;21.15;10.82;;;;;;;;;;5033431;28;20041;-58
2020/12/31 13:38:37;;;;;;;25.50;11.35;;;;;;;;;;5018925;28;20033;-58
2020/12/31 13:41:03;;;;;;;22.25;10.73;;;;;;;;;;5038735;28;20125;-58
2020/12/31 13:43:29;;;;;;;16.98;10.10;;;;;;;;;;5034111;28;20106;-58
2020/12/31 13:45:55;;;;;;;20.02;10.00;;;;;;;;;;5023260;28;20153;-58
2020/12/31 13:48:21;;;;;;;17.23;9.98;;;;;;;;;;5032301;28;20029;-59
2020/12/31 13:50:47;;;;;;;19.25;10.45;;;;;;;;;;5029617;28;20033;-59
2020/12/31 13:53:13;;;;;;;21.05;11.02;;;;;;;;;;5035973;28;20451;-59
2020/12/31 13:55:39;;;;;;;23.77;11.10;;;;;;;;;;5033198;28;20036;-60
2020/12/31 13:58:05;;;;;;;19.85;10.75;;;;;;;;;;5029683;28;20040;-59
2020/12/31 14:00:31;;;;;;;22.90;11.50;;;;;;;;;;5011161;28;20043;-59
2020/12/31 14:02:57;;;;;;;19.30;10.77;;;;;;;;;;5024023;28;20112;-58
2020/12/31 14:05:23;;;;;;;20.70;10.68;;;;;;;;;;5029017;28;20553;-59
2020/12/31 14:07:49;;;;;;;21.15;10.85;;;;;;;;;;5032115;28;20041;-59
2020/12/31 14:10:15;;;;;;;17.75;10.75;;;;;;;;;;5036245;28;20075;-60
2020/12/31 14:12:43;;;;;;;22.45;12.07;;;;;;;;;;5036353;28;20478;-60
2020/12/31 14:15:10;;;;;;;20.55;11.02;;;;;;;;;;5032525;28;20033;-60
2020/12/31 14:17:36;;;;;;;21.20;10.75;;;;;;;;;;5039890;28;20044;-58
2020/12/31 14:20:02;;;;;;;22.75;11.48;;;;;;;;;;5037614;28;20039;-58